Time;durP1;ratioP1;P1;durP2;ratioP2;P2;SDS_P1;SDS_P2;PMS_P1;PMS_P2;Temp;Humidity;BMP_temperature;BMP_pressure;BME280_temperature;BME280_humidity;BME280_pressure;Samples;Min_cycle;Max_cycle;Signal;HPM_P1;HPM_P2
2022/03/17 00:00:08;;;;;;;0.40;0.40;;;22.00;53.60;;;;;;5064904;28;20029;-40
2022/03/17 00:02:35;;;;;;;0.22;0.22;;;22.00;53.60;;;;;;5064931;28;20021;-40
2022/03/17 00:05:02;;;;;;;0.50;0.30;;;21.90;53.50;;;;;;5064556;28;20037;-40
2022/03/17 00:07:30;;;;;;;0.50;0.30;;;21.90;53.50;;;;;;5063330;28;20936;-40
2022/03/17 00:09:56;;;;;;;0.50;0.40;;;21.90;53.50;;;;;;5064578;28;20049;-40
2022/03/17 00:12:23;;;;;;;1.30;0.50;;;21.90;53.50;;;;;;5064630;28;20037;-40
2022/03/17 00:14:51;;;;;;;0.50;0.30;;;21.90;53.70;;;;;;5064516;28;20047;-40
2022/03/17 00:17:17;;;;;;;0.30;0.30;;;22.00;53.70;;;;;;5063813;28;20033;-40
2022/03/17 00:19:44;;;;;;;0.60;0.30;;;22.00;53.70;;;;;;5064151;28;20095;-45
2022/03/17 00:22:15;;;;;;;2.58;0.40;;;22.00;53.60;;;;;;5064584;28;20024;-46
2022/03/17 00:24:42;;;;;;;3.10;0.60;;;22.00;53.70;;;;;;5064531;28;20056;-46
2022/03/17 00:27:08;;;;;;;0.25;0.20;;;22.00;53.50;;;;;;5063904;28;20049;-44
2022/03/17 00:29:35;;;;;;;1.27;0.30;;;22.00;53.50;;;;;;5064356;28;20084;-45
2022/03/17 00:32:02;;;;;;;0.65;0.40;;;21.90;53.40;;;;;;5064014;28;20017;-43
2022/03/17 00:34:28;;;;;;;1.60;0.73;;;21.90;53.40;;;;;;5064550;28;20057;-42
2022/03/17 00:36:54;;;;;;;0.70;0.20;;;22.00;53.60;;;;;;5063864;28;20144;-42
2022/03/17 00:39:21;;;;;;;0.82;0.20;;;22.00;53.90;;;;;;5063043;28;20794;-44
2022/03/17 00:41:47;;;;;;;0.40;0.30;;;22.00;54.00;;;;;;5059617;28;20089;-42
2022/03/17 00:44:14;;;;;;;0.13;0.13;;;22.00;54.00;;;;;;5062914;28;20489;-43
2022/03/17 00:46:40;;;;;;;1.33;0.40;;;22.00;54.00;;;;;;5063510;28;20037;-44
2022/03/17 00:49:07;;;;;;;0.52;0.30;;;22.00;54.00;;;;;;5064129;28;20047;-42
2022/03/17 00:51:33;;;;;;;0.30;0.30;;;22.00;54.00;;;;;;5063787;28;20028;-43
2022/03/17 00:53:59;;;;;;;1.23;0.30;;;22.00;54.00;;;;;;5063799;28;20085;-42
2022/03/17 00:56:26;;;;;;;1.23;0.47;;;22.00;53.90;;;;;;5059664;28;20275;-44
2022/03/17 00:58:52;;;;;;;1.15;0.40;;;22.00;54.00;;;;;;5061054;28;20040;-41
2022/03/17 01:01:19;;;;;;;3.67;0.43;;;22.00;54.10;;;;;;5062254;28;20051;-45
2022/03/17 01:03:46;;;;;;;0.80;0.38;;;22.10;54.20;;;;;;5061076;28;20127;-44
2022/03/17 01:06:12;;;;;;;0.30;0.20;;;22.10;54.10;;;;;;5060490;28;20139;-39
2022/03/17 01:08:39;;;;;;;1.75;0.20;;;22.10;54.10;;;;;;5061579;28;20032;-38
2022/03/17 01:11:05;;;;;;;1.10;0.53;;;22.10;54.20;;;;;;5061374;28;20092;-42
2022/03/17 01:13:31;;;;;;;3.33;0.30;;;22.10;54.40;;;;;;5063315;28;20029;-45
2022/03/17 01:15:58;;;;;;;1.83;0.30;;;22.10;54.40;;;;;;5061551;28;20021;-46
2022/03/17 01:18:24;;;;;;;1.55;0.38;;;22.10;54.20;;;;;;5058960;28;20278;-40
2022/03/17 01:20:53;;;;;;;1.08;0.30;;;22.10;54.20;;;;;;5061369;28;20021;-40
2022/03/17 01:23:19;;;;;;;3.08;0.20;;;22.10;54.30;;;;;;5061983;28;20025;-40
2022/03/17 01:25:45;;;;;;;0.60;0.22;;;22.10;54.50;;;;;;5062667;28;20041;-39
2022/03/17 01:28:11;;;;;;;0.50;0.20;;;22.20;54.50;;;;;;5062219;28;20851;-39
2022/03/17 01:30:37;;;;;;;0.70;0.30;;;22.20;54.60;;;;;;5062351;28;20021;-39
2022/03/17 01:33:04;;;;;;;1.35;0.40;;;22.10;54.60;;;;;;5062202;28;20044;-39
2022/03/17 01:35:30;;;;;;;1.40;0.30;;;22.20;54.50;;;;;;5063807;28;20021;-39
2022/03/17 01:37:56;;;;;;;0.57;0.25;;;22.10;54.40;;;;;;5061730;28;20504;-39
2022/03/17 01:40:23;;;;;;;1.05;0.30;;;22.20;54.40;;;;;;5063262;28;20046;-39
2022/03/17 01:42:49;;;;;;;1.73;0.30;;;22.20;54.30;;;;;;5061527;28;20052;-39
2022/03/17 01:45:16;;;;;;;0.90;0.25;;;22.20;54.30;;;;;;5060675;28;20051;-39
2022/03/17 01:47:44;;;;;;;1.10;0.40;;;22.20;54.20;;;;;;5061871;28;20080;-39
2022/03/17 01:50:12;;;;;;;0.40;0.20;;;22.20;54.30;;;;;;5061815;28;20032;-39
2022/03/17 01:52:38;;;;;;;0.85;0.20;;;22.20;54.20;;;;;;5061354;28;20094;-39
2022/03/17 01:55:05;;;;;;;1.77;0.20;;;22.20;54.10;;;;;;5062116;28;20032;-39
2022/03/17 01:57:31;;;;;;;0.50;0.20;;;22.20;54.20;;;;;;5061817;28;20025;-39
2022/03/17 01:59:58;;;;;;;0.40;0.20;;;22.20;54.10;;;;;;5063436;28;20120;-39
2022/03/17 02:02:25;;;;;;;0.68;0.38;;;22.10;54.00;;;;;;5061245;28;20040;-39
2022/03/17 02:04:52;;;;;;;0.30;0.25;;;22.20;54.00;;;;;;5061829;28;20041;-40
2022/03/17 02:07:19;;;;;;;1.52;0.30;;;22.10;54.10;;;;;;5055565;28;20139;-40
2022/03/17 02:09:48;;;;;;;0.77;0.22;;;22.20;53.90;;;;;;5060407;28;20111;-39
2022/03/17 02:15:01;;;;;;;0.35;0.30;;;22.20;54.00;;;;;;5062686;28;20071;-42
2022/03/17 02:17:30;;;;;;;0.57;0.28;;;22.20;54.00;;;;;;5061257;28;20020;-40
2022/03/17 02:20:00;;;;;;;1.65;0.32;;;22.20;53.90;;;;;;5060909;28;20037;-39
2022/03/17 02:22:28;;;;;;;0.35;0.30;;;22.20;54.30;;;;;;5059810;28;20064;-39
2022/03/17 02:27:45;;;;;;;0.95;0.35;;;22.20;53.80;;;;;;5060781;28;20071;-39
2022/03/17 02:30:12;;;;;;;1.05;0.35;;;22.10;53.60;;;;;;5059123;28;20055;-40
2022/03/17 02:32:39;;;;;;;0.70;0.30;;;22.10;53.70;;;;;;5059111;28;20018;-40
2022/03/17 02:35:25;;;;;;;0.80;0.32;;;22.10;53.90;;;;;;5058763;28;20040;-40
2022/03/17 02:37:51;;;;;;;0.55;0.38;;;22.10;53.90;;;;;;5057217;28;20796;-39
2022/03/17 02:40:17;;;;;;;0.70;0.30;;;22.20;53.90;;;;;;5061117;28;20140;-40
2022/03/17 02:42:43;;;;;;;0.60;0.35;;;22.10;53.70;;;;;;5058741;28;20023;-39
2022/03/17 02:45:13;;;;;;;0.30;0.20;;;22.10;53.60;;;;;;5061431;28;20485;-43
2022/03/17 02:47:40;;;;;;;0.50;0.40;;;22.10;53.50;;;;;;5060534;28;20092;-39
2022/03/17 02:50:07;;;;;;;1.45;0.30;;;22.10;53.70;;;;;;5061198;28;20025;-40
2022/03/17 02:52:33;;;;;;;0.20;0.20;;;22.00;53.60;;;;;;5060858;28;20036;-40
2022/03/17 02:54:59;;;;;;;0.55;0.30;;;22.00;53.80;;;;;;5060967;28;20580;-40
2022/03/17 02:57:25;;;;;;;0.28;0.25;;;22.10;53.90;;;;;;5061395;28;20020;-39
2022/03/17 02:59:52;;;;;;;0.68;0.30;;;22.10;53.90;;;;;;5061072;28;20104;-39
2022/03/17 03:02:19;;;;;;;0.80;0.50;;;22.10;53.80;;;;;;5061052;28;20024;-39
2022/03/17 03:04:45;;;;;;;1.02;0.40;;;22.10;53.80;;;;;;5064744;28;20658;-40
2022/03/17 03:07:11;;;;;;;0.52;0.30;;;22.10;53.70;;;;;;5064383;28;20044;-39
2022/03/17 03:09:37;;;;;;;0.40;0.30;;;22.10;53.60;;;;;;5064526;28;20028;-39
2022/03/17 03:12:04;;;;;;;0.57;0.30;;;22.10;53.60;;;;;;5064679;28;20025;-40
2022/03/17 03:14:30;;;;;;;0.40;0.40;;;22.00;53.60;;;;;;5064880;28;20036;-39
2022/03/17 03:16:57;;;;;;;0.35;0.35;;;22.00;53.80;;;;;;5064840;28;20040;-40
2022/03/17 03:19:23;;;;;;;0.50;0.30;;;22.10;53.80;;;;;;5064727;28;20029;-40
2022/03/17 03:21:49;;;;;;;0.40;0.30;;;22.10;53.90;;;;;;5065087;28;20021;-40
2022/03/17 03:24:15;;;;;;;0.82;0.30;;;22.10;54.40;;;;;;5064154;28;20055;-39
2022/03/17 03:26:41;;;;;;;1.17;0.32;;;22.10;53.90;;;;;;5062197;28;20134;-39
2022/03/17 03:29:21;;;;;;;1.27;0.33;;;22.10;53.70;;;;;;5064100;28;20032;-39
2022/03/17 03:31:49;;;;;;;0.68;0.30;;;22.00;53.70;;;;;;5064443;28;20048;-39
2022/03/17 03:34:16;;;;;;;0.38;0.30;;;22.10;53.70;;;;;;5064520;28;20029;-40
2022/03/17 03:39:26;;;;;;;0.45;0.40;;;22.00;53.90;;;;;;5060591;28;20049;-39
2022/03/17 03:41:53;;;;;;;0.65;0.40;;;22.10;54.00;;;;;;5062279;28;20032;-39
2022/03/17 03:44:19;;;;;;;0.75;0.40;;;22.10;54.10;;;;;;5061145;28;20021;-39
2022/03/17 03:46:45;;;;;;;0.82;0.30;;;22.10;54.10;;;;;;5064003;28;20124;-40
2022/03/17 03:49:11;;;;;;;3.03;0.40;;;22.10;54.00;;;;;;5063521;28;20042;-40
2022/03/17 03:51:37;;;;;;;0.57;0.30;;;22.10;54.10;;;;;;5061322;28;20029;-40
2022/03/17 03:54:13;;;;;;;0.63;0.40;;;22.10;54.00;;;;;;5064867;28;20033;-40
2022/03/17 03:56:40;;;;;;;0.50;0.47;;;22.10;54.20;;;;;;5058153;28;20033;-39
2022/03/17 03:59:25;;;;;;;0.65;0.43;;;22.10;54.30;;;;;;5062781;28;20090;-39
2022/03/17 04:01:55;;;;;;;0.68;0.50;;;22.10;54.20;;;;;;5060941;28;20037;-40
2022/03/17 04:04:22;;;;;;;0.57;0.30;;;22.10;54.20;;;;;;5064076;28;20025;-39
2022/03/17 04:06:52;;;;;;;0.57;0.57;;;22.10;54.20;;;;;;5063693;28;20041;-39
2022/03/17 04:09:20;;;;;;;0.40;0.40;;;22.10;54.00;;;;;;5061917;28;20025;-39
2022/03/17 04:11:47;;;;;;;0.50;0.30;;;22.10;53.90;;;;;;5061415;28;20056;-39
2022/03/17 04:14:13;;;;;;;0.57;0.40;;;22.10;54.00;;;;;;5063434;28;20021;-39
2022/03/17 04:16:40;;;;;;;1.15;0.60;;;22.10;54.00;;;;;;5062726;28;20029;-39
2022/03/17 04:19:06;;;;;;;1.45;0.55;;;22.10;54.30;;;;;;5043418;28;20041;-39
2022/03/17 04:21:32;;;;;;;0.65;0.50;;;22.10;54.20;;;;;;5047349;28;20558;-39
2022/03/17 04:23:59;;;;;;;1.50;0.50;;;22.10;54.20;;;;;;5062949;28;20036;-40
2022/03/17 04:26:26;;;;;;;0.70;0.50;;;22.10;54.40;;;;;;5055019;28;20036;-40
2022/03/17 04:28:52;;;;;;;0.87;0.43;;;22.10;54.20;;;;;;5065814;28;20041;-39
2022/03/17 04:31:20;;;;;;;0.63;0.40;;;22.10;54.30;;;;;;5055732;28;20056;-39
2022/03/17 04:33:47;;;;;;;0.30;0.30;;;22.10;54.10;;;;;;5058702;28;20056;-40
2022/03/17 04:36:14;;;;;;;0.82;0.57;;;22.10;54.20;;;;;;5061237;28;20024;-40
2022/03/17 04:38:40;;;;;;;0.70;0.50;;;22.10;54.20;;;;;;5061503;28;20028;-39
2022/03/17 04:41:06;;;;;;;0.98;0.52;;;22.10;54.40;;;;;;5061222;28;20116;-41
2022/03/17 04:43:32;;;;;;;0.70;0.60;;;22.10;54.40;;;;;;5063984;28;20033;-41
2022/03/17 04:45:59;;;;;;;0.75;0.50;;;22.10;54.40;;;;;;5062873;28;20041;-41
2022/03/17 04:48:25;;;;;;;0.70;0.47;;;22.20;54.30;;;;;;5059494;28;20021;-40
2022/03/17 04:50:51;;;;;;;0.50;0.50;;;22.10;54.40;;;;;;5060049;28;20123;-41
2022/03/17 04:53:32;;;;;;;0.50;0.50;;;22.10;54.30;;;;;;5061120;28;20036;-41
2022/03/17 04:56:12;;;;;;;0.60;0.57;;;22.10;54.20;;;;;;5063026;28;20517;-41
2022/03/17 04:58:40;;;;;;;1.95;0.60;;;22.10;54.10;;;;;;5060718;28;20056;-40
2022/03/17 05:01:07;;;;;;;0.50;0.50;;;22.10;54.20;;;;;;5060314;28;20040;-40
2022/03/17 05:03:33;;;;;;;0.60;0.60;;;22.10;54.40;;;;;;5062710;28;20021;-40
2022/03/17 05:06:00;;;;;;;4.23;1.10;;;22.10;54.30;;;;;;5062837;28;20995;-40
2022/03/17 05:08:26;;;;;;;0.80;0.70;;;22.20;54.40;;;;;;5055866;28;20044;-40
2022/03/17 05:10:52;;;;;;;0.77;0.60;;;22.20;54.40;;;;;;5059599;28;20033;-40
2022/03/17 05:13:19;;;;;;;1.02;0.57;;;22.10;54.20;;;;;;5062753;28;20170;-40
2022/03/17 05:15:49;;;;;;;0.52;0.40;;;22.10;54.10;;;;;;5062185;28;20029;-40
2022/03/17 05:18:15;;;;;;;0.40;0.40;;;22.10;54.10;;;;;;5062010;28;20558;-46
2022/03/17 05:20:41;;;;;;;0.98;0.60;;;22.10;54.10;;;;;;5061204;28;20025;-40
2022/03/17 05:23:08;;;;;;;0.60;0.60;;;22.10;54.20;;;;;;5062215;28;20021;-40
2022/03/17 05:25:35;;;;;;;0.75;0.70;;;22.10;54.40;;;;;;5058862;28;20033;-40
2022/03/17 05:28:01;;;;;;;0.60;0.40;;;22.10;54.40;;;;;;5060467;28;20043;-41
2022/03/17 05:30:27;;;;;;;1.33;0.50;;;22.20;54.40;;;;;;5059229;28;20025;-41
2022/03/17 05:32:53;;;;;;;0.95;0.65;;;22.10;54.20;;;;;;5058193;28;20482;-40
2022/03/17 05:35:20;;;;;;;0.40;0.40;;;22.20;54.30;;;;;;5062072;28;20032;-41
2022/03/17 05:37:46;;;;;;;1.25;0.70;;;22.10;54.10;;;;;;5061515;28;20075;-40
2022/03/17 05:40:17;;;;;;;0.88;0.55;;;22.20;54.20;;;;;;5061829;28;20039;-41
2022/03/17 05:42:50;;;;;;;0.50;0.40;;;22.10;54.10;;;;;;5060730;28;20021;-41
2022/03/17 05:45:17;;;;;;;0.80;0.60;;;22.10;54.30;;;;;;5059556;28;20038;-41
2022/03/17 05:47:44;;;;;;;0.82;0.60;;;22.10;54.40;;;;;;5061673;28;20044;-40
2022/03/17 05:50:12;;;;;;;2.35;0.65;;;22.10;54.30;;;;;;5061574;28;20032;-40
2022/03/17 05:52:39;;;;;;;2.55;0.65;;;22.10;54.40;;;;;;5059723;28;20031;-40
2022/03/17 05:55:06;;;;;;;0.40;0.40;;;22.20;54.40;;;;;;5063108;28;20025;-40
2022/03/17 05:57:38;;;;;;;0.93;0.47;;;22.20;54.30;;;;;;5060531;28;20059;-40
2022/03/17 06:00:06;;;;;;;0.70;0.70;;;22.10;54.20;;;;;;5060091;28;20029;-40
2022/03/17 06:02:33;;;;;;;0.60;0.60;;;22.10;54.10;;;;;;5060934;28;20092;-40
2022/03/17 06:04:59;;;;;;;1.17;0.57;;;22.10;54.10;;;;;;5059408;28;20021;-40
2022/03/17 06:07:25;;;;;;;2.30;0.50;;;22.10;54.30;;;;;;5061594;28;20041;-40
2022/03/17 06:09:55;;;;;;;1.95;0.60;;;22.10;54.40;;;;;;5060104;28;20642;-40
2022/03/17 06:12:21;;;;;;;0.55;0.45;;;22.20;54.50;;;;;;5042117;28;20026;-41
2022/03/17 06:14:47;;;;;;;0.73;0.52;;;22.20;54.50;;;;;;5052952;28;20025;-41
2022/03/17 06:17:13;;;;;;;1.00;0.60;;;22.10;54.40;;;;;;5050725;28;20032;-41
2022/03/17 06:19:40;;;;;;;0.68;0.55;;;22.20;54.30;;;;;;5054612;28;20028;-40
2022/03/17 06:22:06;;;;;;;1.75;0.63;;;22.20;54.20;;;;;;5053120;28;20087;-40
2022/03/17 06:24:32;;;;;;;0.50;0.50;;;22.10;54.20;;;;;;5052271;28;20060;-40
2022/03/17 06:26:58;;;;;;;0.60;0.50;;;22.10;54.10;;;;;;5046012;28;20049;-41
2022/03/17 06:29:24;;;;;;;0.90;0.60;;;22.10;54.30;;;;;;5049508;28;20032;-40
2022/03/17 06:31:51;;;;;;;3.42;0.65;;;22.10;54.40;;;;;;5045498;28;20032;-40
2022/03/17 06:34:18;;;;;;;0.93;0.60;;;22.20;54.30;;;;;;5048377;28;20025;-40
2022/03/17 06:36:44;;;;;;;0.52;0.52;;;22.10;54.30;;;;;;5050784;28;20028;-40
2022/03/17 06:39:10;;;;;;;0.60;0.60;;;22.10;54.10;;;;;;5051846;28;20068;-40
2022/03/17 06:41:36;;;;;;;2.65;0.60;;;22.20;54.10;;;;;;5046023;28;20106;-41
2022/03/17 06:44:02;;;;;;;0.47;0.47;;;22.10;54.00;;;;;;5052311;28;20040;-40
2022/03/17 06:46:29;;;;;;;0.60;0.57;;;22.10;54.00;;;;;;5049014;28;20029;-40
2022/03/17 06:48:56;;;;;;;0.52;0.50;;;22.10;54.10;;;;;;5047262;28;20033;-40
2022/03/17 06:51:22;;;;;;;2.00;0.90;;;22.10;54.30;;;;;;5050396;28;20032;-40
2022/03/17 06:53:48;;;;;;;1.05;0.95;;;22.10;54.30;;;;;;5049349;28;20029;-40
2022/03/17 06:56:14;;;;;;;1.80;0.75;;;22.10;54.20;;;;;;5047222;28;20033;-40
2022/03/17 06:58:40;;;;;;;0.50;0.50;;;22.20;54.20;;;;;;5046937;28;20021;-40
2022/03/17 07:01:06;;;;;;;1.98;0.60;;;22.10;54.00;;;;;;5044051;28;20029;-40
2022/03/17 07:03:32;;;;;;;1.10;0.55;;;22.10;53.90;;;;;;5048210;28;20058;-40
2022/03/17 07:05:58;;;;;;;2.78;0.80;;;22.10;53.90;;;;;;5044262;28;20030;-40
2022/03/17 07:08:25;;;;;;;0.85;0.60;;;22.10;53.90;;;;;;5045069;28;20033;-40
2022/03/17 07:10:51;;;;;;;0.73;0.60;;;22.10;54.10;;;;;;5053976;28;20029;-40
2022/03/17 07:13:17;;;;;;;0.55;0.55;;;22.10;54.20;;;;;;5047026;28;20040;-40
2022/03/17 07:15:43;;;;;;;2.38;0.60;;;22.10;54.10;;;;;;5050094;28;20021;-40
2022/03/17 07:18:09;;;;;;;0.60;0.50;;;22.10;54.20;;;;;;5047451;28;20029;-40
2022/03/17 07:20:35;;;;;;;1.05;0.50;;;22.10;54.00;;;;;;5051038;28;20040;-40
2022/03/17 07:23:01;;;;;;;0.60;0.60;;;22.10;54.60;;;;;;5046581;28;20029;-40
2022/03/17 07:25:28;;;;;;;0.80;0.70;;;22.10;53.90;;;;;;5047621;28;20064;-40
2022/03/17 07:27:54;;;;;;;1.05;0.57;;;22.10;54.10;;;;;;5046396;28;20157;-40
2022/03/17 07:30:22;;;;;;;1.67;0.60;;;22.00;54.10;;;;;;5044549;28;20032;-40
2022/03/17 07:32:49;;;;;;;0.60;0.60;;;22.10;54.30;;;;;;5047490;28;20052;-40
2022/03/17 07:35:15;;;;;;;0.68;0.63;;;22.10;54.20;;;;;;5044385;28;20796;-40
2022/03/17 07:37:42;;;;;;;0.50;0.50;;;22.10;54.30;;;;;;5047236;28;20056;-41
2022/03/17 07:40:09;;;;;;;0.55;0.55;;;22.10;54.10;;;;;;5046792;28;20083;-40
2022/03/17 07:42:35;;;;;;;0.60;0.60;;;22.10;53.90;;;;;;5049855;28;20486;-40
2022/03/17 07:45:01;;;;;;;0.60;0.60;;;22.10;54.00;;;;;;5046843;28;20051;-40
2022/03/17 07:47:28;;;;;;;0.68;0.50;;;22.10;54.00;;;;;;5049263;28;20110;-41
2022/03/17 07:49:54;;;;;;;1.75;0.57;;;22.10;54.20;;;;;;5050321;28;20112;-40
2022/03/17 07:52:20;;;;;;;0.70;0.50;;;22.00;54.20;;;;;;5052586;28;20097;-41
2022/03/17 07:54:46;;;;;;;0.60;0.60;;;22.10;54.30;;;;;;5050273;28;20025;-40
2022/03/17 07:57:12;;;;;;;0.60;0.50;;;22.10;54.20;;;;;;5049791;28;20029;-41
2022/03/17 07:59:39;;;;;;;0.57;0.50;;;22.10;54.20;;;;;;5034418;28;20032;-40
2022/03/17 08:02:05;;;;;;;0.60;0.60;;;22.10;54.20;;;;;;5048105;28;20043;-41
2022/03/17 08:04:32;;;;;;;0.50;0.50;;;22.10;54.00;;;;;;5051350;28;20092;-41
2022/03/17 08:07:00;;;;;;;1.67;0.50;;;22.10;54.10;;;;;;5051891;28;20115;-40
2022/03/17 08:09:27;;;;;;;0.80;0.68;;;22.10;54.10;;;;;;5048465;28;20279;-41
2022/03/17 08:11:53;;;;;;;0.80;0.70;;;22.10;54.40;;;;;;5049149;28;20037;-40
2022/03/17 08:14:20;;;;;;;1.08;0.60;;;22.10;54.40;;;;;;5050897;28;20036;-40
2022/03/17 08:16:46;;;;;;;0.80;0.50;;;22.10;54.30;;;;;;5050219;28;20061;-40
2022/03/17 08:19:12;;;;;;;2.83;0.43;;;22.10;54.80;;;;;;5057658;28;20045;-39
2022/03/17 08:21:41;;;;;;;1.15;0.50;;;22.10;54.30;;;;;;5052037;28;20046;-39
2022/03/17 08:24:08;;;;;;;0.70;0.57;;;22.10;54.10;;;;;;5049206;28;20474;-39
2022/03/17 08:26:34;;;;;;;0.82;0.80;;;22.10;54.20;;;;;;5050392;28;20049;-39
2022/03/17 08:29:01;;;;;;;1.03;0.70;;;22.10;54.10;;;;;;5050939;28;20025;-39
2022/03/17 08:31:28;;;;;;;2.07;0.80;;;22.10;54.20;;;;;;5049907;28;20274;-39
2022/03/17 08:33:56;;;;;;;1.00;0.68;;;22.00;54.30;;;;;;5048884;28;20033;-39
2022/03/17 08:36:23;;;;;;;0.50;0.50;;;22.10;54.40;;;;;;5051299;28;20123;-39
2022/03/17 08:38:51;;;;;;;2.58;0.60;;;22.10;54.30;;;;;;5054134;28;20047;-40
2022/03/17 08:41:18;;;;;;;0.60;0.60;;;22.10;54.20;;;;;;5051025;28;20041;-39
2022/03/17 08:43:44;;;;;;;1.65;0.65;;;22.10;54.10;;;;;;5050947;28;20056;-39
2022/03/17 08:51:39;;;;;;;0.82;0.55;;;22.00;54.10;;;;;;5050436;28;20043;-39
2022/03/17 08:54:05;;;;;;;1.02;0.80;;;22.00;54.20;;;;;;5048459;28;20067;-40
2022/03/17 08:56:36;;;;;;;1.02;0.70;;;22.00;54.30;;;;;;5051533;28;20178;-39
2022/03/17 08:59:03;;;;;;;1.00;0.63;;;22.10;54.50;;;;;;5060761;28;20054;-40
2022/03/17 09:01:29;;;;;;;2.30;0.80;;;22.10;54.50;;;;;;5057175;28;20029;-39
2022/03/17 09:03:55;;;;;;;0.50;0.50;;;22.10;54.30;;;;;;5044881;28;20036;-40
2022/03/17 09:06:22;;;;;;;0.50;0.50;;;22.10;54.40;;;;;;5074001;28;20479;-39
2022/03/17 09:08:49;;;;;;;0.47;0.47;;;22.10;54.20;;;;;;5060746;28;20099;-40
2022/03/17 09:11:15;;;;;;;0.93;0.55;;;22.10;54.20;;;;;;5063527;28;20071;-39
2022/03/17 09:13:41;;;;;;;0.82;0.50;;;22.10;54.20;;;;;;5063141;28;20048;-39
2022/03/17 09:16:08;;;;;;;0.60;0.50;;;22.00;54.30;;;;;;5063234;28;20094;-39
2022/03/17 09:18:34;;;;;;;0.60;0.60;;;22.10;54.50;;;;;;5062700;28;20017;-39
2022/03/17 09:21:00;;;;;;;0.60;0.60;;;22.10;54.50;;;;;;5044997;28;20033;-39
2022/03/17 09:23:30;;;;;;;0.75;0.68;;;22.10;54.40;;;;;;5048796;28;20025;-40
2022/03/17 09:25:57;;;;;;;0.60;0.50;;;22.10;54.30;;;;;;5059814;28;20156;-39
2022/03/17 09:28:23;;;;;;;0.60;0.60;;;22.10;54.30;;;;;;5057964;28;20049;-39
2022/03/17 09:30:51;;;;;;;0.82;0.68;;;22.10;54.40;;;;;;5056997;28;20051;-40
2022/03/17 09:33:17;;;;;;;0.70;0.60;;;22.00;54.40;;;;;;5043443;28;20037;-40
2022/03/17 09:35:43;;;;;;;0.63;0.60;;;22.00;54.40;;;;;;5054668;28;20075;-39
2022/03/17 09:38:10;;;;;;;1.27;0.73;;;22.00;54.40;;;;;;5061368;28;20029;-39
2022/03/17 09:40:36;;;;;;;1.13;0.88;;;22.00;54.50;;;;;;5056759;28;20056;-39
2022/03/17 09:43:18;;;;;;;1.10;0.67;;;22.10;54.50;;;;;;5053445;28;20059;-39
2022/03/17 09:45:45;;;;;;;0.80;0.60;;;22.00;54.40;;;;;;5047041;28;20334;-39
2022/03/17 09:48:12;;;;;;;1.13;0.70;;;22.00;54.40;;;;;;5059018;28;20043;-39
2022/03/17 09:50:39;;;;;;;0.57;0.50;;;22.00;54.30;;;;;;5056694;28;20033;-39
2022/03/17 09:53:06;;;;;;;0.75;0.47;;;22.00;54.30;;;;;;5054901;28;20083;-39
2022/03/17 09:55:33;;;;;;;1.15;0.60;;;22.00;54.40;;;;;;5061659;28;20051;-39
2022/03/17 09:58:00;;;;;;;0.65;0.60;;;22.00;54.30;;;;;;5056284;28;20640;-40
2022/03/17 10:00:47;;;;;;;0.80;0.63;;;22.00;54.50;;;;;;5055325;28;20096;-39
2022/03/17 10:03:12;;;;;;;1.25;0.75;;;22.00;54.60;;;;;;5047753;28;20034;-40
2022/03/17 10:05:38;;;;;;;1.02;0.63;;;22.10;54.40;;;;;;5033386;28;20465;-39
2022/03/17 10:08:05;;;;;;;1.55;0.80;;;22.10;54.60;;;;;;5053128;28;20032;-39
2022/03/17 10:10:37;;;;;;;0.70;0.70;;;22.00;54.40;;;;;;5062556;28;20029;-39
2022/03/17 10:13:10;;;;;;;1.08;0.70;;;22.00;54.30;;;;;;5067461;28;20434;-39
2022/03/17 10:15:37;;;;;;;1.83;0.70;;;22.00;54.30;;;;;;5061268;28;20461;-40
2022/03/17 10:18:23;;;;;;;0.70;0.70;;;22.00;54.40;;;;;;5048033;28;20025;-39
2022/03/17 10:21:16;;;;;;;1.00;0.82;;;22.00;54.50;;;;;;5060421;28;20681;-39
2022/03/17 10:23:59;;;;;;;0.70;0.70;;;22.00;54.60;;;;;;5060045;28;20021;-40
2022/03/17 10:26:31;;;;;;;0.80;0.52;;;22.00;54.60;;;;;;5066398;28;20037;-40
2022/03/17 10:29:20;;;;;;;0.63;0.63;;;22.00;54.50;;;;;;5072955;28;20036;-40
2022/03/17 10:32:01;;;;;;;1.55;0.80;;;22.00;54.40;;;;;;5075137;28;20266;-39
2022/03/17 10:34:49;;;;;;;0.70;0.70;;;22.00;54.30;;;;;;5068335;28;20024;-39
2022/03/17 10:37:16;;;;;;;0.65;0.60;;;22.00;54.30;;;;;;5057985;28;20139;-40
2022/03/17 10:39:56;;;;;;;1.63;0.70;;;22.00;54.40;;;;;;5080151;28;20024;-46
2022/03/17 10:42:25;;;;;;;1.42;0.63;;;22.00;54.40;;;;;;5076527;28;20040;-46
2022/03/17 10:44:55;;;;;;;0.90;0.70;;;22.00;54.40;;;;;;5074555;28;20032;-43
2022/03/17 10:47:36;;;;;;;0.73;0.73;;;22.10;54.50;;;;;;5073968;28;20044;-44
2022/03/17 10:50:14;;;;;;;2.40;0.70;;;22.10;54.40;;;;;;5075096;28;20030;-42
2022/03/17 10:52:55;;;;;;;11.70;0.90;;;22.10;54.50;;;;;;5071509;28;20032;-42
2022/03/17 10:55:26;;;;;;;5.22;1.15;;;22.10;54.70;;;;;;5078051;28;20038;-42
2022/03/17 10:57:58;;;;;;;4.05;1.08;;;22.00;54.50;;;;;;5080382;28;20035;-43
2022/03/17 11:00:28;;;;;;;2.97;0.90;;;22.00;54.50;;;;;;5081680;28;20056;-43
2022/03/17 11:02:59;;;;;;;0.90;0.82;;;22.00;54.50;;;;;;5082036;28;20560;-44
2022/03/17 11:05:27;;;;;;;0.80;0.60;;;22.00;54.20;;;;;;5081850;28;20466;-44
2022/03/17 11:07:54;;;;;;;3.22;0.88;;;22.00;54.20;;;;;;5070369;28;20037;-45
2022/03/17 11:10:22;;;;;;;2.75;0.73;;;22.10;54.30;;;;;;5081769;28;20647;-44
2022/03/17 11:12:50;;;;;;;2.00;0.80;;;22.10;54.40;;;;;;5081846;28;20032;-44
2022/03/17 11:15:25;;;;;;;2.45;0.88;;;22.00;54.30;;;;;;5081177;28;20040;-44
2022/03/17 11:17:51;;;;;;;1.00;0.73;;;22.00;54.30;;;;;;5060301;28;20049;-44
2022/03/17 11:20:19;;;;;;;1.52;0.80;;;22.00;54.30;;;;;;5063359;28;20059;-44
2022/03/17 11:22:55;;;;;;;0.80;0.80;;;21.90;54.10;;;;;;5077095;28;20401;-44
2022/03/17 11:25:25;;;;;;;0.80;0.70;;;22.00;54.10;;;;;;5062831;28;20056;-44
2022/03/17 11:27:57;;;;;;;0.98;0.70;;;22.00;54.10;;;;;;5066451;28;20737;-45
2022/03/17 11:30:23;;;;;;;1.08;0.68;;;22.00;54.10;;;;;;5065165;28;20025;-44
2022/03/17 11:32:58;;;;;;;1.10;1.00;;;22.00;54.20;;;;;;5046973;28;20029;-44
2022/03/17 11:35:29;;;;;;;2.22;0.90;;;22.00;54.20;;;;;;5078283;28;20536;-45
2022/03/17 11:38:16;;;;;;;1.58;0.90;;;21.90;54.10;;;;;;5083603;28;20033;-44
2022/03/17 11:41:04;;;;;;;1.48;0.95;;;21.90;54.10;;;;;;5080484;28;20025;-44
2022/03/17 11:43:39;;;;;;;1.48;0.95;;;21.90;54.00;;;;;;5069078;28;20047;-44
2022/03/17 11:46:22;;;;;;;2.17;0.80;;;21.90;54.10;;;;;;5068939;28;20044;-44
2022/03/17 11:48:54;;;;;;;0.95;0.70;;;21.90;54.10;;;;;;5078982;28;20092;-44
2022/03/17 11:51:20;;;;;;;1.30;1.00;;;22.00;54.10;;;;;;5083928;28;20116;-44
2022/03/17 11:53:53;;;;;;;1.38;0.80;;;21.90;54.20;;;;;;5084716;28;20033;-46
2022/03/17 11:56:31;;;;;;;0.88;0.80;;;21.90;54.10;;;;;;5088985;28;20047;-45
2022/03/17 11:58:58;;;;;;;1.08;0.70;;;21.90;54.10;;;;;;5089240;28;20602;-45
2022/03/17 12:01:27;;;;;;;1.05;0.70;;;21.90;54.10;;;;;;5084740;28;20033;-45
2022/03/17 12:03:57;;;;;;;1.63;0.93;;;21.80;54.00;;;;;;5084499;28;20048;-44
2022/03/17 12:06:25;;;;;;;0.60;0.60;;;21.80;54.00;;;;;;5080703;28;20056;-44
2022/03/17 12:09:11;;;;;;;1.15;0.80;;;21.80;54.00;;;;;;5083288;28;20028;-44
2022/03/17 12:11:43;;;;;;;1.10;1.00;;;21.90;54.20;;;;;;5081541;28;20111;-44
2022/03/17 12:14:17;;;;;;;0.95;0.85;;;21.90;54.20;;;;;;5066518;28;20032;-44
2022/03/17 12:17:06;;;;;;;0.90;0.82;;;21.90;54.30;;;;;;5073197;28;20029;-44
2022/03/17 12:19:36;;;;;;;1.20;0.70;;;21.80;54.20;;;;;;5076495;28;20025;-44
2022/03/17 12:22:07;;;;;;;0.95;0.85;;;21.80;54.10;;;;;;5084335;28;20036;-44
2022/03/17 12:24:40;;;;;;;1.45;1.00;;;21.80;54.10;;;;;;5084033;28;20036;-44
2022/03/17 12:27:17;;;;;;;0.90;0.80;;;21.80;54.10;;;;;;5083461;28;20055;-44
2022/03/17 12:29:44;;;;;;;1.13;1.05;;;21.80;54.20;;;;;;5075483;28;20020;-44
2022/03/17 12:32:18;;;;;;;1.52;1.00;;;21.90;54.30;;;;;;5073630;28;20040;-44
2022/03/17 12:34:46;;;;;;;1.20;1.10;;;21.90;54.20;;;;;;5086617;28;20099;-44
2022/03/17 12:37:12;;;;;;;1.35;1.00;;;21.80;54.30;;;;;;5083175;28;20032;-44
2022/03/17 12:39:40;;;;;;;1.02;0.93;;;21.80;54.20;;;;;;5065459;28;20051;-44
2022/03/17 12:42:17;;;;;;;1.45;1.20;;;21.80;54.20;;;;;;5080861;28;20036;-44
2022/03/17 12:44:51;;;;;;;1.20;1.10;;;21.80;54.20;;;;;;5083779;28;20045;-44
2022/03/17 12:47:18;;;;;;;1.20;1.10;;;21.80;54.10;;;;;;5083048;28;20051;-45
2022/03/17 12:49:44;;;;;;;;;;;21.80;54.30;;;;;;5066799;28;20040;-44
2022/03/17 12:52:20;;;;;;;1.73;1.48;;;21.80;54.30;;;;;;5089237;28;19923;-44
2022/03/17 12:54:50;;;;;;;1.33;1.20;;;21.80;54.30;;;;;;5090809;28;20147;-45
2022/03/17 12:57:16;;;;;;;1.20;1.10;;;21.80;54.40;;;;;;5086252;28;20508;-43
2022/03/17 12:59:42;;;;;;;1.60;1.30;;;21.80;54.40;;;;;;5083867;28;20035;-44
2022/03/17 13:02:09;;;;;;;1.10;0.98;;;21.70;54.30;;;;;;5082907;28;20032;-45
2022/03/17 13:04:39;;;;;;;1.58;1.48;;;21.70;54.20;;;;;;5071400;28;20037;-45
2022/03/17 13:07:10;;;;;;;1.70;1.50;;;21.70;54.20;;;;;;5082443;28;20048;-44